createdAt,value
2022-07-27T00:00:44.654Z,19.58
2022-07-27T00:01:50.891Z,19.61
2022-07-27T00:02:53.288Z,19.59
2022-07-27T00:03:55.007Z,19.61
2022-07-27T00:04:56.792Z,19.62
2022-07-27T00:05:58.427Z,19.61
2022-07-27T00:07:00.093Z,19.57
2022-07-27T00:08:01.709Z,19.54
2022-07-27T00:09:03.483Z,19.51
2022-07-27T00:10:05.873Z,19.54
2022-07-27T00:11:08.317Z,19.44
2022-07-27T00:12:09.955Z,19.45
2022-07-27T00:13:11.594Z,19.45
2022-07-27T00:14:13.198Z,19.48
2022-07-27T00:15:14.881Z,19.49
2022-07-27T00:16:16.698Z,19.49
2022-07-27T00:17:23.850Z,19.48
2022-07-27T00:18:25.702Z,19.48
2022-07-27T00:19:27.366Z,19.48
2022-07-27T00:20:29.054Z,19.48
2022-07-27T00:21:30.670Z,19.38
2022-07-27T00:22:32.291Z,19.28
2022-07-27T00:23:34.326Z,19.27
2022-07-27T00:24:35.994Z,19.24
2022-07-27T00:25:37.589Z,19.18
2022-07-27T00:26:39.198Z,19.22
2022-07-27T00:27:40.789Z,19.21
2022-07-27T00:28:42.469Z,19.22
2022-07-27T00:29:45.644Z,19.22
2022-07-27T00:30:47.299Z,19.18
2022-07-27T00:31:49.057Z,19.21
2022-07-27T00:32:50.994Z,19.17
2022-07-27T00:33:52.808Z,19.15
2022-07-27T00:34:54.424Z,19.19
2022-07-27T00:35:56.221Z,19.17
2022-07-27T00:36:57.829Z,19.08
2022-07-27T00:37:59.480Z,19.10
2022-07-27T00:39:01.349Z,19.10
2022-07-27T00:40:03.537Z,19.08
2022-07-27T00:41:05.301Z,19.07
2022-07-27T00:42:07.756Z,19.08
2022-07-27T00:43:09.400Z,19.00
2022-07-27T00:44:12.412Z,18.98
2022-07-27T00:45:14.321Z,18.96
2022-07-27T00:46:15.946Z,18.91
2022-07-27T00:47:17.624Z,18.93
2022-07-27T00:48:19.312Z,18.97
2022-07-27T00:49:21.244Z,18.94
2022-07-27T00:50:22.960Z,18.96
2022-07-27T00:51:24.775Z,18.93
2022-07-27T00:52:26.517Z,18.91
2022-07-27T00:53:28.160Z,18.84
2022-07-27T00:54:29.766Z,18.87
2022-07-27T00:55:33.046Z,18.84
2022-07-27T00:56:34.711Z,18.83
2022-07-27T00:57:58.627Z,18.77
2022-07-27T00:58:58.358Z,18.76
2022-07-27T01:00:00.113Z,18.78
2022-07-27T01:01:01.824Z,18.81
2022-07-27T01:02:04.377Z,18.77
2022-07-27T01:03:12.944Z,18.67
2022-07-27T01:04:17.991Z,18.66
2022-07-27T01:05:20.465Z,18.63
2022-07-27T01:06:26.836Z,18.66
2022-07-27T01:07:32.124Z,18.70
2022-07-27T01:08:33.799Z,18.67
2022-07-27T01:09:53.913Z,18.64
2022-07-27T01:10:57.816Z,18.67
2022-07-27T01:11:59.454Z,18.71
2022-07-27T01:13:01.124Z,18.71
2022-07-27T01:14:02.710Z,18.68
2022-07-27T01:15:04.652Z,18.70
2022-07-27T01:16:06.939Z,18.70
2022-07-27T01:17:08.708Z,18.70
2022-07-27T01:18:14.323Z,18.63
2022-07-27T01:19:16.188Z,18.63
2022-07-27T01:20:17.811Z,18.57
2022-07-27T01:21:19.442Z,18.59
2022-07-27T01:22:21.139Z,18.54
2022-07-27T01:23:24.058Z,18.53
2022-07-27T01:24:25.720Z,18.54
2022-07-27T01:25:27.326Z,18.45
2022-07-27T01:26:29.561Z,18.42
2022-07-27T01:27:31.223Z,18.43
2022-07-27T01:28:32.849Z,18.37
2022-07-27T01:29:36.291Z,18.35
2022-07-27T01:30:37.893Z,18.36
2022-07-27T01:31:39.567Z,18.33
2022-07-27T01:32:41.235Z,18.33
2022-07-27T01:33:42.857Z,18.28
2022-07-27T01:34:44.570Z,18.32
2022-07-27T01:35:46.317Z,18.29
2022-07-27T01:36:48.194Z,18.28
2022-07-27T01:37:49.783Z,18.29
2022-07-27T01:38:51.380Z,18.26
2022-07-27T01:39:53.054Z,18.21
2022-07-27T01:40:54.969Z,18.28
2022-07-27T01:41:56.649Z,18.23
2022-07-27T01:42:58.284Z,18.28
2022-07-27T01:43:59.884Z,18.29
2022-07-27T01:45:01.561Z,18.30
2022-07-27T01:46:03.372Z,18.32
2022-07-27T01:47:14.026Z,18.32
2022-07-27T01:48:16.530Z,18.35
2022-07-27T01:49:18.270Z,18.35
2022-07-27T01:50:20.017Z,18.40
2022-07-27T01:51:21.648Z,18.45
2022-07-27T01:52:23.256Z,18.46
2022-07-27T01:53:24.988Z,18.52
2022-07-27T01:54:26.590Z,18.53
2022-07-27T01:55:31.058Z,18.50
2022-07-27T01:56:40.861Z,18.59
2022-07-27T01:57:42.477Z,18.61
2022-07-27T01:58:44.083Z,18.66
2022-07-27T01:59:45.735Z,18.71
2022-07-27T02:00:48.562Z,18.73
2022-07-27T02:01:50.396Z,18.68
2022-07-27T02:02:52.111Z,18.71
2022-07-27T02:03:53.729Z,18.74
2022-07-27T02:04:55.517Z,18.71
2022-07-27T02:05:57.144Z,18.76
2022-07-27T02:06:58.816Z,18.81
2022-07-27T02:08:00.445Z,18.78
2022-07-27T02:09:02.099Z,18.80
2022-07-27T02:10:03.929Z,18.80
2022-07-27T02:11:24.040Z,18.78
2022-07-27T02:12:37.887Z,18.80
2022-07-27T02:13:39.755Z,18.74
2022-07-27T02:14:41.375Z,18.63
2022-07-27T02:15:44.564Z,18.64
2022-07-27T02:16:46.495Z,18.56
2022-07-27T02:17:48.569Z,18.49
2022-07-27T02:18:50.335Z,18.46
2022-07-27T02:19:51.978Z,18.52
2022-07-27T02:20:53.609Z,18.45
2022-07-27T02:21:55.201Z,18.52
2022-07-27T02:22:56.957Z,18.45
2022-07-27T02:23:58.623Z,18.49
2022-07-27T02:25:00.238Z,18.47
2022-07-27T02:26:02.929Z,18.47
2022-07-27T02:27:04.734Z,18.49
2022-07-27T02:28:07.005Z,18.40
2022-07-27T02:29:08.874Z,18.36
2022-07-27T02:30:11.442Z,18.32
2022-07-27T02:31:13.058Z,18.30
2022-07-27T02:32:14.748Z,18.26
2022-07-27T02:33:17.311Z,18.32
2022-07-27T02:34:18.997Z,18.29
2022-07-27T02:35:20.733Z,18.23
2022-07-27T02:36:22.996Z,18.23
2022-07-27T02:37:25.050Z,18.15
2022-07-27T02:38:26.705Z,18.15
2022-07-27T02:39:28.310Z,18.19
2022-07-27T02:40:29.949Z,18.23
2022-07-27T02:41:31.626Z,18.23
2022-07-27T02:42:33.237Z,18.19
2022-07-27T02:43:34.823Z,18.21
2022-07-27T02:44:36.437Z,18.17
2022-07-27T02:45:38.097Z,18.21
2022-07-27T02:46:39.784Z,18.15
2022-07-27T02:47:41.557Z,18.16
2022-07-27T02:48:43.343Z,18.19
2022-07-27T02:49:45.063Z,18.22
2022-07-27T02:50:46.701Z,18.23
2022-07-27T02:51:52.028Z,18.22
2022-07-27T02:52:53.649Z,18.19
2022-07-27T02:53:55.330Z,18.23
2022-07-27T02:54:56.940Z,18.25
2022-07-27T02:55:58.679Z,18.19
2022-07-27T02:57:02.941Z,18.15
2022-07-27T02:58:04.551Z,18.19
2022-07-27T02:59:06.159Z,18.16
2022-07-27T03:00:12.933Z,18.15
2022-07-27T03:01:15.231Z,18.15
2022-07-27T03:02:16.871Z,18.15
2022-07-27T03:03:18.502Z,18.16
2022-07-27T03:04:20.217Z,18.15
2022-07-27T03:05:21.868Z,18.06
2022-07-27T03:06:23.515Z,18.10
2022-07-27T03:07:25.157Z,18.08
2022-07-27T03:08:26.820Z,18.05
2022-07-27T03:09:32.755Z,18.01
2022-07-27T03:10:35.203Z,17.99
2022-07-27T03:11:37.118Z,17.96
2022-07-27T03:12:38.807Z,17.95
2022-07-27T03:13:40.505Z,17.96
2022-07-27T03:14:42.109Z,17.95
2022-07-27T03:15:43.870Z,17.96
2022-07-27T03:16:45.572Z,17.94
2022-07-27T03:17:47.426Z,17.92
2022-07-27T03:18:49.825Z,17.88
2022-07-27T03:19:51.699Z,17.79
2022-07-27T03:20:53.352Z,17.77
2022-07-27T03:21:54.973Z,17.72
2022-07-27T03:22:56.589Z,17.75
2022-07-27T03:23:58.257Z,17.79
2022-07-27T03:25:00.353Z,17.75
2022-07-27T03:26:01.988Z,17.75
2022-07-27T03:27:03.689Z,17.75
2022-07-27T03:28:05.427Z,17.72
2022-07-27T03:29:07.093Z,17.72
2022-07-27T03:30:08.984Z,17.75
2022-07-27T03:31:10.695Z,17.79
2022-07-27T03:32:12.332Z,17.78
2022-07-27T03:33:13.930Z,17.81
2022-07-27T03:34:15.526Z,17.78
2022-07-27T03:35:17.277Z,17.86
2022-07-27T03:36:21.704Z,17.89
2022-07-27T03:37:23.365Z,17.92
2022-07-27T03:38:24.974Z,17.98
2022-07-27T03:39:26.595Z,17.96
2022-07-27T03:40:32.965Z,17.99
2022-07-27T03:41:34.841Z,17.99
2022-07-27T03:42:36.449Z,17.96
2022-07-27T03:43:38.116Z,18.02
2022-07-27T03:44:39.734Z,18.06
2022-07-27T03:45:41.463Z,18.03
2022-07-27T03:46:43.166Z,18.15
2022-07-27T03:47:44.872Z,18.12
2022-07-27T03:48:46.535Z,18.17
2022-07-27T03:49:48.233Z,18.15
2022-07-27T03:50:50.040Z,18.19
2022-07-27T03:51:51.672Z,18.21
2022-07-27T03:52:53.378Z,18.21
2022-07-27T03:53:55.335Z,18.22
2022-07-27T03:54:57.459Z,18.28
2022-07-27T03:55:59.088Z,18.32
2022-07-27T03:57:02.233Z,18.35
2022-07-27T03:58:03.902Z,18.35
2022-07-27T03:59:05.548Z,18.29
2022-07-27T04:00:08.782Z,18.32
2022-07-27T04:01:10.496Z,18.30
2022-07-27T04:02:12.220Z,18.39
2022-07-27T04:03:13.918Z,18.43
2022-07-27T04:04:15.576Z,18.47
2022-07-27T04:05:17.430Z,18.47
2022-07-27T04:06:19.053Z,18.49
2022-07-27T04:07:21.062Z,18.49
2022-07-27T04:08:22.781Z,18.50
2022-07-27T04:09:24.973Z,18.49
2022-07-27T04:10:31.482Z,18.53
2022-07-27T04:11:33.537Z,18.57
2022-07-27T04:12:38.729Z,18.59
2022-07-27T04:13:43.332Z,18.60
2022-07-27T04:14:47.144Z,18.70
2022-07-27T04:15:49.114Z,18.76
2022-07-27T04:16:50.838Z,18.74
2022-07-27T04:17:56.772Z,18.77
2022-07-27T04:18:59.765Z,18.84
2022-07-27T04:20:01.435Z,18.88
2022-07-27T04:21:06.287Z,18.91
2022-07-27T04:22:08.005Z,18.93
2022-07-27T04:23:09.626Z,18.94
2022-07-27T04:24:11.241Z,18.98
2022-07-27T04:25:12.880Z,19.03
2022-07-27T04:26:14.492Z,19.04
2022-07-27T04:27:17.170Z,19.08
2022-07-27T04:28:18.805Z,19.14
2022-07-27T04:29:21.465Z,19.18
2022-07-27T04:30:23.625Z,19.15
2022-07-27T04:31:25.362Z,19.18
2022-07-27T04:32:27.041Z,19.25
2022-07-27T04:33:28.670Z,19.25
2022-07-27T04:34:30.276Z,19.31
2022-07-27T04:35:31.964Z,19.31
2022-07-27T04:36:33.580Z,19.35
2022-07-27T04:37:35.945Z,19.38
2022-07-27T04:38:37.590Z,19.45
2022-07-27T04:39:39.217Z,19.48
2022-07-27T04:40:40.849Z,19.55
2022-07-27T04:41:42.490Z,19.57
2022-07-27T04:42:49.470Z,19.59
2022-07-27T04:43:51.541Z,19.63
2022-07-27T04:44:53.153Z,19.70
2022-07-27T04:45:54.809Z,19.79
2022-07-27T04:46:56.525Z,19.82
2022-07-27T04:47:58.508Z,19.76
2022-07-27T04:49:00.226Z,19.79
2022-07-27T04:50:02.045Z,19.83
2022-07-27T04:51:03.875Z,19.86
2022-07-27T04:52:05.494Z,19.83
2022-07-27T04:53:07.165Z,19.90
2022-07-27T04:54:08.857Z,19.94
2022-07-27T04:55:10.480Z,19.94
2022-07-27T04:56:12.093Z,19.99
2022-07-27T04:57:13.761Z,19.99
2022-07-27T04:58:15.469Z,20.03
2022-07-27T04:59:17.140Z,19.94
2022-07-27T05:00:18.974Z,19.97
2022-07-27T05:01:20.662Z,20.03
2022-07-27T05:02:22.577Z,20.06
2022-07-27T05:03:24.277Z,20.08
2022-07-27T05:04:25.976Z,20.12
2022-07-27T05:05:27.682Z,20.12
2022-07-27T05:06:30.433Z,20.14
2022-07-27T05:07:32.097Z,20.16
2022-07-27T05:08:33.709Z,20.17
2022-07-27T05:09:35.350Z,20.19
2022-07-27T05:10:36.948Z,20.21
2022-07-27T05:11:38.551Z,20.20
2022-07-27T05:12:40.281Z,20.23
2022-07-27T05:13:41.900Z,20.24
2022-07-27T05:14:43.541Z,20.26
2022-07-27T05:15:54.591Z,20.30
2022-07-27T05:16:57.693Z,20.37
2022-07-27T05:17:59.397Z,20.43
2022-07-27T05:19:01.393Z,20.43
2022-07-27T05:20:03.916Z,20.45
2022-07-27T05:21:06.103Z,20.47
2022-07-27T05:22:08.552Z,20.51
2022-07-27T05:23:10.672Z,20.57
2022-07-27T05:24:12.343Z,20.57
2022-07-27T05:25:14.056Z,20.61
2022-07-27T05:26:15.679Z,20.67
2022-07-27T05:27:17.292Z,20.60
2022-07-27T05:28:18.915Z,20.58
2022-07-27T05:29:20.569Z,20.57
2022-07-27T05:30:22.764Z,20.68
2022-07-27T05:31:25.612Z,20.71
2022-07-27T05:32:27.316Z,20.81
2022-07-27T05:33:28.966Z,20.87
2022-07-27T05:34:30.854Z,20.92
2022-07-27T05:35:32.534Z,20.95
2022-07-27T05:36:34.226Z,21.01
2022-07-27T05:37:35.895Z,21.04
2022-07-27T05:38:39.502Z,21.11
2022-07-27T05:39:44.066Z,21.15
2022-07-27T05:40:46.198Z,21.21
2022-07-27T05:41:47.797Z,21.19
2022-07-27T05:42:51.252Z,21.25
2022-07-27T05:43:54.430Z,21.25
2022-07-27T05:44:56.068Z,21.23
2022-07-27T05:45:57.828Z,21.22
2022-07-27T05:46:59.514Z,21.28
2022-07-27T05:48:01.390Z,21.21
2022-07-27T05:49:03.169Z,21.31
2022-07-27T05:50:05.192Z,21.31
2022-07-27T05:51:06.910Z,21.36
2022-07-27T05:52:08.521Z,21.41
2022-07-27T05:53:11.660Z,21.49
2022-07-27T05:54:13.256Z,21.62
2022-07-27T05:55:15.029Z,21.66
2022-07-27T05:56:16.740Z,21.70
2022-07-27T05:57:18.371Z,21.74
2022-07-27T05:58:19.973Z,21.74
2022-07-27T05:59:25.905Z,21.83
2022-07-27T06:00:27.515Z,21.89
2022-07-27T06:01:29.226Z,21.97
2022-07-27T06:02:31.687Z,22.08
2022-07-27T06:03:33.397Z,22.22
2022-07-27T06:04:35.798Z,22.35
2022-07-27T06:05:37.425Z,22.43
2022-07-27T06:06:57.576Z,22.57
2022-07-27T06:07:59.221Z,22.75
2022-07-27T06:09:00.888Z,22.94
2022-07-27T06:10:02.501Z,23.00
2022-07-27T06:11:04.229Z,23.15
2022-07-27T06:12:06.223Z,23.31
2022-07-27T06:13:08.958Z,23.36
2022-07-27T06:14:11.053Z,23.47
2022-07-27T06:15:12.841Z,23.67
2022-07-27T06:16:14.613Z,23.74
2022-07-27T06:17:16.886Z,23.82
2022-07-27T06:18:18.785Z,23.88
2022-07-27T06:19:21.341Z,23.94
2022-07-27T06:20:23.733Z,24.10
2022-07-27T06:21:26.679Z,24.20
2022-07-27T06:22:28.474Z,24.35
2022-07-27T06:23:30.278Z,24.26
2022-07-27T06:24:31.858Z,24.28
2022-07-27T06:25:34.403Z,24.42
2022-07-27T06:26:37.937Z,24.41
2022-07-27T06:27:39.731Z,24.41
2022-07-27T06:28:41.421Z,24.28
2022-07-27T06:29:43.043Z,24.39
2022-07-27T06:30:45.180Z,24.53
2022-07-27T06:31:47.011Z,24.48
2022-07-27T06:32:49.299Z,24.65
2022-07-27T06:33:52.244Z,24.62
2022-07-27T06:34:54.019Z,24.59
2022-07-27T06:35:57.041Z,24.61
2022-07-27T06:37:00.326Z,24.62
2022-07-27T06:38:02.892Z,24.38
2022-07-27T06:39:04.561Z,24.38
2022-07-27T06:40:06.795Z,24.42
2022-07-27T06:41:08.383Z,24.66
2022-07-27T06:42:10.062Z,24.63
2022-07-27T06:43:11.724Z,24.55
2022-07-27T06:44:13.377Z,24.65
2022-07-27T06:45:15.089Z,24.69
2022-07-27T06:46:16.881Z,24.86
2022-07-27T06:47:18.543Z,25.00
2022-07-27T06:48:21.410Z,25.23
2022-07-27T06:49:23.092Z,25.22
2022-07-27T06:50:24.879Z,25.41
2022-07-27T06:51:26.566Z,25.51
2022-07-27T06:52:28.549Z,25.50
2022-07-27T06:53:34.733Z,25.60
2022-07-27T06:54:38.171Z,25.68
2022-07-27T06:55:39.804Z,25.73
2022-07-27T06:56:41.390Z,25.74
2022-07-27T06:57:43.285Z,25.85
2022-07-27T06:58:45.104Z,25.99
2022-07-27T06:59:46.740Z,25.92
2022-07-27T07:00:48.427Z,25.75
2022-07-27T07:01:50.141Z,25.96
2022-07-27T07:02:52.824Z,26.06
2022-07-27T07:03:56.365Z,25.87
2022-07-27T07:04:58.208Z,25.92
2022-07-27T07:06:00.113Z,25.91
2022-07-27T07:07:06.625Z,25.96
2022-07-27T07:08:12.188Z,25.89
2022-07-27T07:09:13.908Z,26.02
2022-07-27T07:10:15.645Z,25.94
2022-07-27T07:11:17.248Z,25.96
2022-07-27T07:12:19.109Z,26.04
2022-07-27T07:13:20.772Z,26.09
2022-07-27T07:14:22.725Z,26.16
2022-07-27T07:15:25.180Z,26.25
2022-07-27T07:16:26.904Z,26.21
2022-07-27T07:17:28.889Z,26.12
2022-07-27T07:18:30.714Z,26.25
2022-07-27T07:19:32.334Z,26.08
2022-07-27T07:20:34.413Z,26.18
2022-07-27T07:21:36.091Z,26.09
2022-07-27T07:22:37.706Z,26.24
2022-07-27T07:23:39.343Z,26.28
2022-07-27T07:24:40.949Z,26.32
2022-07-27T07:25:42.668Z,26.36
2022-07-27T07:26:45.201Z,26.46
2022-07-27T07:27:46.808Z,26.48
2022-07-27T07:28:48.573Z,26.46
2022-07-27T07:29:50.404Z,26.42
2022-07-27T07:30:52.019Z,26.60
2022-07-27T07:31:53.939Z,26.36
2022-07-27T07:32:55.799Z,26.32
2022-07-27T07:33:58.461Z,26.38
2022-07-27T07:35:01.130Z,26.55
2022-07-27T07:36:12.376Z,26.64
2022-07-27T07:37:14.734Z,26.77
2022-07-27T07:38:16.661Z,26.75
2022-07-27T07:39:18.455Z,26.80
2022-07-27T07:41:42.041Z,26.77
2022-07-27T07:42:58.137Z,26.82
2022-07-27T07:43:59.805Z,26.84
2022-07-27T07:45:01.444Z,26.89
2022-07-27T07:46:03.304Z,26.91
2022-07-27T07:47:05.255Z,26.84
2022-07-27T07:48:07.365Z,26.94
2022-07-27T07:49:11.166Z,26.99
2022-07-27T07:50:13.124Z,26.93
2022-07-27T07:51:14.786Z,27.08
2022-07-27T07:52:16.854Z,27.15
2022-07-27T07:53:18.481Z,27.20
2022-07-27T07:54:20.076Z,27.23
2022-07-27T07:55:22.817Z,27.15
2022-07-27T07:56:24.472Z,27.11
2022-07-27T07:57:26.122Z,26.93
2022-07-27T07:58:27.741Z,26.96
2022-07-27T07:59:29.389Z,27.00
2022-07-27T08:00:31.077Z,26.99
2022-07-27T08:01:32.925Z,27.11
2022-07-27T08:02:43.076Z,27.17
2022-07-27T08:03:50.292Z,27.11
2022-07-27T08:04:52.562Z,27.24
2022-07-27T08:05:54.183Z,27.34
2022-07-27T08:06:57.218Z,27.40
2022-07-27T08:07:58.849Z,27.42
2022-07-27T08:09:00.955Z,27.41
2022-07-27T08:10:02.579Z,27.37
2022-07-27T08:11:04.190Z,27.37
2022-07-27T08:12:06.629Z,27.30
2022-07-27T08:13:08.819Z,27.42
2022-07-27T08:14:11.009Z,27.30
2022-07-27T08:15:13.200Z,27.40
2022-07-27T08:16:14.847Z,27.47
2022-07-27T08:17:17.182Z,27.50
2022-07-27T08:18:19.332Z,27.65
2022-07-27T08:19:21.004Z,27.57
2022-07-27T08:20:24.319Z,27.52
2022-07-27T08:21:25.946Z,27.58
2022-07-27T08:22:30.756Z,27.54
2022-07-27T08:23:32.423Z,27.63
2022-07-27T08:24:34.276Z,27.62
2022-07-27T08:25:35.951Z,27.73
2022-07-27T08:26:37.596Z,27.71
2022-07-27T08:27:40.727Z,27.71
2022-07-27T08:28:42.625Z,27.89
2022-07-27T08:29:44.900Z,27.78
2022-07-27T08:30:46.784Z,27.86
2022-07-27T08:31:52.716Z,27.88
2022-07-27T08:33:01.373Z,27.99
2022-07-27T08:34:03.239Z,28.03
2022-07-27T08:35:05.295Z,28.12
2022-07-27T08:36:08.055Z,28.17
2022-07-27T08:37:14.968Z,28.22
2022-07-27T08:38:17.137Z,28.29
2022-07-27T08:39:52.285Z,28.05
2022-07-27T08:40:43.625Z,28.20
2022-07-27T08:41:45.647Z,28.29
2022-07-27T08:42:47.287Z,28.40
2022-07-27T08:43:50.894Z,28.42
2022-07-27T08:44:52.600Z,28.50
2022-07-27T08:45:55.973Z,28.53
2022-07-27T08:46:57.992Z,28.56
2022-07-27T08:47:59.668Z,28.53
2022-07-27T08:49:01.880Z,28.50
2022-07-27T08:50:03.839Z,28.61
2022-07-27T08:51:07.641Z,28.47
2022-07-27T08:52:10.657Z,28.57
2022-07-27T08:53:13.125Z,28.37
2022-07-27T08:54:14.744Z,28.47
2022-07-27T08:55:16.358Z,28.46
2022-07-27T08:56:18.013Z,28.50
2022-07-27T08:57:19.694Z,28.53
2022-07-27T08:58:21.435Z,28.57
2022-07-27T08:59:23.063Z,28.52
2022-07-27T09:00:24.891Z,28.59
2022-07-27T09:01:27.436Z,28.68
2022-07-27T09:02:29.251Z,28.68
2022-07-27T09:03:30.964Z,28.65
2022-07-27T09:04:32.658Z,28.74
2022-07-27T09:05:37.539Z,28.77
2022-07-27T09:06:54.430Z,28.84
2022-07-27T09:08:09.124Z,28.71
2022-07-27T09:09:15.159Z,28.68
2022-07-27T09:10:33.886Z,28.84
2022-07-27T09:11:37.277Z,28.91
2022-07-27T09:12:39.388Z,28.90
2022-07-27T09:13:41.321Z,28.87
2022-07-27T09:14:43.356Z,28.71
2022-07-27T09:16:16.256Z,28.74
2022-07-27T09:18:48.751Z,28.73
2022-07-27T09:19:57.237Z,28.61
2022-07-27T09:21:14.744Z,28.73
2022-07-27T09:22:16.362Z,28.74
2022-07-27T09:23:26.157Z,28.70
2022-07-27T09:24:46.329Z,28.74
2022-07-27T09:26:13.623Z,28.77
2022-07-27T09:27:10.777Z,28.78
2022-07-27T09:28:12.379Z,28.78
2022-07-27T09:29:15.583Z,28.91
2022-07-27T09:30:19.037Z,28.94
2022-07-27T09:31:20.769Z,28.91
2022-07-27T09:32:22.456Z,29.00
2022-07-27T09:33:24.053Z,29.07
2022-07-27T09:34:34.515Z,29.05
2022-07-27T09:35:36.390Z,29.05
2022-07-27T09:36:54.248Z,29.10
2022-07-27T09:38:19.204Z,29.07
2022-07-27T09:39:22.095Z,29.08
2022-07-27T09:40:24.222Z,29.15
2022-07-27T09:41:26.931Z,29.25
2022-07-27T09:43:05.774Z,29.28
2022-07-27T09:45:32.447Z,29.32
2022-07-27T09:46:37.340Z,29.34
2022-07-27T09:47:39.796Z,29.41
2022-07-27T09:48:41.599Z,29.36
2022-07-27T09:49:43.227Z,29.26
2022-07-27T09:51:02.558Z,29.39
2022-07-27T09:52:05.591Z,29.39
2022-07-27T09:53:41.401Z,29.52
2022-07-27T09:54:45.341Z,29.52
2022-07-27T09:55:59.325Z,29.54
2022-07-27T09:57:02.188Z,29.58
2022-07-27T09:58:03.826Z,29.41
2022-07-27T09:59:05.477Z,29.35
2022-07-27T10:00:11.503Z,29.32
2022-07-27T10:01:21.890Z,29.34
2022-07-27T10:02:23.698Z,29.36
2022-07-27T10:03:25.408Z,29.44
2022-07-27T10:04:27.084Z,29.48
2022-07-27T10:05:28.999Z,29.42
2022-07-27T10:06:38.975Z,29.51
2022-07-27T10:07:50.324Z,29.54
2022-07-27T10:08:52.691Z,29.52
2022-07-27T10:09:54.384Z,29.62
2022-07-27T10:10:56.209Z,29.65
2022-07-27T10:11:58.470Z,29.69
2022-07-27T10:13:00.080Z,29.66
2022-07-27T10:14:02.010Z,29.62
2022-07-27T10:15:03.797Z,29.59
2022-07-27T10:16:06.193Z,29.58
2022-07-27T10:17:07.881Z,29.59
2022-07-27T10:18:12.900Z,29.59
2022-07-27T10:19:26.205Z,29.49
2022-07-27T10:20:27.877Z,29.46
2022-07-27T10:21:29.546Z,29.45
2022-07-27T10:22:49.452Z,29.48
2022-07-27T10:23:58.686Z,29.51
2022-07-27T10:25:00.781Z,29.55
2022-07-27T10:26:14.364Z,29.55
2022-07-27T10:27:28.162Z,29.61
2022-07-27T10:28:29.926Z,29.63
2022-07-27T10:29:31.544Z,29.66
2022-07-27T10:30:33.288Z,29.67
2022-07-27T10:31:37.486Z,29.72
2022-07-27T10:32:39.865Z,29.76
2022-07-27T10:33:42.307Z,29.79
2022-07-27T10:34:44.116Z,29.83
2022-07-27T10:35:45.782Z,29.85
2022-07-27T10:36:49.939Z,29.87
2022-07-27T10:38:15.441Z,29.95
2022-07-27T10:39:34.878Z,29.87
2022-07-27T10:40:37.090Z,29.92
2022-07-27T10:41:40.526Z,29.93
2022-07-27T10:42:42.793Z,29.93
2022-07-27T10:43:44.415Z,29.93
2022-07-27T10:45:06.708Z,29.99
2022-07-27T10:46:08.416Z,30.09
2022-07-27T10:47:10.107Z,30.13
2022-07-27T10:48:45.856Z,30.16
2022-07-27T10:49:49.824Z,30.20
2022-07-27T10:50:51.509Z,30.14
2022-07-27T10:51:53.376Z,30.06
2022-07-27T10:52:56.938Z,30.07
2022-07-27T10:54:13.712Z,30.09
2022-07-27T10:55:30.779Z,30.12
2022-07-27T10:56:48.584Z,30.16
2022-07-27T10:57:50.192Z,30.16
2022-07-27T10:58:51.944Z,30.21
2022-07-27T11:00:12.336Z,30.26
2022-07-27T11:01:15.873Z,30.30
2022-07-27T11:02:20.719Z,30.33
2022-07-27T11:03:23.714Z,30.37
2022-07-27T11:04:25.422Z,30.47
2022-07-27T11:05:58.960Z,30.53
2022-07-27T11:07:22.923Z,30.57
2022-07-27T11:11:01.054Z,30.70
2022-07-27T11:12:06.999Z,30.72
2022-07-27T11:13:09.771Z,30.67
2022-07-27T11:14:12.168Z,30.71
2022-07-27T11:15:14.417Z,30.60
2022-07-27T11:16:25.967Z,30.54
2022-07-27T11:18:56.436Z,30.51
2022-07-27T11:19:59.354Z,30.56
2022-07-27T11:21:26.869Z,30.63
2022-07-27T11:23:26.535Z,30.48
2022-07-27T11:24:06.024Z,30.50
2022-07-27T11:25:08.002Z,30.34
2022-07-27T11:26:09.621Z,30.45
2022-07-27T11:27:17.154Z,30.54
2022-07-27T11:28:20.037Z,30.50
2022-07-27T11:29:22.845Z,30.53
2022-07-27T11:30:28.438Z,30.47
2022-07-27T11:31:54.009Z,30.40
2022-07-27T11:32:51.991Z,30.44
2022-07-27T11:33:58.472Z,30.44
2022-07-27T11:35:00.112Z,30.57
2022-07-27T11:36:05.738Z,30.58
2022-07-27T11:37:19.267Z,30.53
2022-07-27T11:38:22.246Z,30.64
2022-07-27T11:40:56.886Z,30.67
2022-07-27T11:42:08.705Z,30.74
2022-07-27T11:43:33.838Z,30.82
2022-07-27T11:44:37.219Z,30.75
2022-07-27T11:45:41.993Z,30.80
2022-07-27T11:46:44.530Z,30.81
2022-07-27T11:47:55.753Z,30.68
2022-07-27T11:49:08.364Z,30.72
2022-07-27T11:50:15.646Z,30.78
2022-07-27T11:51:17.620Z,30.88
2022-07-27T11:52:19.329Z,30.95
2022-07-27T11:53:20.941Z,31.03
2022-07-27T11:54:23.489Z,31.03
2022-07-27T11:55:25.093Z,31.05
2022-07-27T11:56:28.087Z,31.05
2022-07-27T11:57:33.124Z,31.11
2022-07-27T11:58:35.386Z,31.18
2022-07-27T11:59:38.057Z,31.19
2022-07-27T12:00:41.311Z,31.21
2022-07-27T12:01:44.175Z,31.28
2022-07-27T12:02:51.897Z,31.23
2022-07-27T12:04:08.185Z,31.21
2022-07-27T12:05:11.101Z,31.14
2022-07-27T12:06:12.759Z,31.19
2022-07-27T12:07:20.086Z,31.22
2022-07-27T12:08:21.736Z,31.14
2022-07-27T12:09:23.415Z,31.19
2022-07-27T12:10:25.068Z,31.11
2022-07-27T12:11:34.370Z,31.01
2022-07-27T12:12:36.541Z,31.05
2022-07-27T12:13:38.163Z,30.99
2022-07-27T12:14:48.943Z,30.94
2022-07-27T12:15:57.585Z,30.99
2022-07-27T12:17:09.187Z,31.03
2022-07-27T12:18:10.841Z,31.11
2022-07-27T12:19:13.001Z,31.14
2022-07-27T12:20:18.348Z,31.12
2022-07-27T12:21:20.149Z,31.12
2022-07-27T12:22:34.681Z,31.14
2022-07-27T12:23:36.290Z,31.18
2022-07-27T12:24:39.654Z,31.23
2022-07-27T12:25:41.493Z,31.29
2022-07-27T12:26:43.138Z,31.40
2022-07-27T12:28:06.770Z,31.49
2022-07-27T12:29:12.213Z,31.50
2022-07-27T12:30:15.483Z,31.56
2022-07-27T12:31:18.218Z,31.52
2022-07-27T12:32:20.313Z,31.45
2022-07-27T12:33:31.587Z,31.42
2022-07-27T12:34:34.785Z,31.32
2022-07-27T12:35:46.786Z,31.31
2022-07-27T12:36:48.673Z,31.23
2022-07-27T12:38:06.665Z,31.21
2022-07-27T12:39:08.294Z,31.19
2022-07-27T12:40:18.988Z,31.26
2022-07-27T12:41:31.419Z,31.32
2022-07-27T12:42:34.419Z,31.42
2022-07-27T12:43:36.414Z,31.40
2022-07-27T12:44:40.578Z,31.38
2022-07-27T12:45:42.239Z,31.45
2022-07-27T12:46:59.428Z,31.35
2022-07-27T12:48:11.144Z,31.47
2022-07-27T12:49:16.406Z,31.58
2022-07-27T12:50:20.695Z,31.49
2022-07-27T12:51:23.729Z,31.60
2022-07-27T12:52:25.987Z,31.54
2022-07-27T12:53:27.787Z,31.54
2022-07-27T12:54:29.413Z,31.47
2022-07-27T12:55:31.195Z,31.42
2022-07-27T12:56:32.821Z,31.43
2022-07-27T12:57:54.543Z,31.32
2022-07-27T12:59:02.804Z,31.39
2022-07-27T13:00:06.325Z,31.45
2022-07-27T13:01:07.953Z,31.36
2022-07-27T13:02:09.670Z,31.40
2022-07-27T13:03:11.393Z,31.43
2022-07-27T13:04:13.054Z,31.39
2022-07-27T13:05:14.755Z,31.39
2022-07-27T13:06:16.353Z,31.33
2022-07-27T13:07:18.766Z,31.45
2022-07-27T13:08:20.477Z,31.47
2022-07-27T13:09:22.083Z,31.56
2022-07-27T13:10:23.709Z,31.58
2022-07-27T13:11:25.540Z,31.60
2022-07-27T13:12:27.177Z,31.67
2022-07-27T13:13:28.858Z,31.74
2022-07-27T13:14:30.470Z,31.86
2022-07-27T13:15:32.150Z,31.90
2022-07-27T13:16:33.891Z,31.96
2022-07-27T13:17:35.972Z,31.93
2022-07-27T13:18:37.648Z,31.94
2022-07-27T13:19:39.377Z,31.98
2022-07-27T13:20:42.456Z,32.00
2022-07-27T13:21:44.184Z,32.00
2022-07-27T13:22:45.901Z,32.03
2022-07-27T13:23:47.549Z,32.04
2022-07-27T13:24:49.197Z,32.06
2022-07-27T13:25:50.934Z,32.14
2022-07-27T13:26:52.581Z,31.96
2022-07-27T13:27:55.262Z,31.84
2022-07-27T13:28:56.877Z,31.90
2022-07-27T13:29:59.947Z,31.89
2022-07-27T13:31:01.635Z,31.84
2022-07-27T13:32:03.437Z,31.89
2022-07-27T13:33:05.084Z,31.93
2022-07-27T13:34:07.094Z,31.94
2022-07-27T13:35:12.293Z,31.90
2022-07-27T13:36:14.008Z,31.96
2022-07-27T13:37:16.099Z,32.06
2022-07-27T13:38:17.733Z,32.00
2022-07-27T13:39:19.354Z,32.02
2022-07-27T13:40:21.913Z,32.13
2022-07-27T13:41:23.635Z,32.11
2022-07-27T13:42:26.156Z,32.14
2022-07-27T13:43:27.761Z,32.16
2022-07-27T13:45:00.610Z,32.13
2022-07-27T13:45:51.128Z,32.09
2022-07-27T13:46:52.800Z,32.06
2022-07-27T13:47:54.983Z,31.94
2022-07-27T13:48:56.864Z,31.80
2022-07-27T13:49:58.601Z,31.72